Time;durP1;ratioP1;P1;durP2;ratioP2;P2;SDS_P1;SDS_P2;PMS_P1;PMS_P2;Temp;Humidity;BMP_temperature;BMP_pressure;BME280_temperature;BME280_humidity;BME280_pressure;Samples;Min_cycle;Max_cycle;Signal;HPM_P1;HPM_P2
2020/12/13 00:00:32;;;;;;;11.50;9.48;;;;;;;1.05;83.79;97662.53;1805749;79;21197;-72
2020/12/13 00:03:01;;;;;;;8.20;6.70;;;;;;;1.06;83.79;97668.23;1805877;79;21355;-72
2020/12/13 00:05:29;;;;;;;8.78;7.50;;;;;;;1.07;83.77;97672.58;1805647;79;20877;-71
2020/12/13 00:07:57;;;;;;;7.67;6.97;;;;;;;1.05;83.64;97675.29;1805793;79;21000;-71
2020/12/13 00:10:25;;;;;;;9.33;6.97;;;;;;;1.06;83.65;97673.05;1805751;79;21105;-72
2020/12/13 00:12:53;;;;;;;7.78;7.00;;;;;;;1.07;83.65;97672.14;1805790;79;21393;-72
2020/12/13 00:15:21;;;;;;;10.95;9.13;;;;;;;1.07;83.64;97673.45;1775809;79;20944;-71
2020/12/13 00:17:51;;;;;;;7.87;6.55;;;;;;;1.10;83.55;97674.24;1805855;79;20941;-72
2020/12/13 00:20:21;;;;;;;7.92;7.03;;;;;;;1.11;83.50;97670.69;1805771;79;21473;-72
2020/12/13 00:22:48;;;;;;;8.25;7.15;;;;;;;1.12;83.47;97672.38;1805660;79;20905;-72
2020/12/13 00:25:16;;;;;;;9.75;8.58;;;;;;;1.11;83.49;97669.36;1805737;79;21102;-72
2020/12/13 00:27:44;;;;;;;8.05;7.12;;;;;;;1.12;83.49;97675.03;1805852;79;20993;-72
2020/12/13 00:30:11;;;;;;;7.12;6.40;;;;;;;1.11;83.44;97675.97;1805782;79;20897;-72
2020/12/13 00:32:39;;;;;;;7.20;6.50;;;;;;;1.10;83.30;97681.70;1805783;79;20877;-72
2020/12/13 00:35:07;;;;;;;7.75;6.55;;;;;;;1.07;83.27;97681.39;1805632;79;20992;-72
2020/12/13 00:37:34;;;;;;;8.53;7.62;;;;;;;1.07;83.32;97688.00;1805814;79;21793;-72
2020/12/13 00:40:03;;;;;;;8.43;7.37;;;;;;;1.05;83.38;97687.19;1805659;79;21313;-72
2020/12/13 00:42:33;;;;;;;8.03;6.40;;;;;;;1.05;83.37;97681.90;1805693;79;21889;-72
2020/12/13 00:45:00;;;;;;;7.30;6.60;;;;;;;1.06;83.39;97682.30;1781136;79;20924;-72
2020/12/13 00:47:28;;;;;;;8.55;7.65;;;;;;;1.06;83.42;97688.92;1805729;79;20901;-72
2020/12/13 00:49:56;;;;;;;8.03;7.22;;;;;;;1.03;83.37;97690.38;1805706;79;21370;-72
2020/12/13 00:52:24;;;;;;;7.92;6.62;;;;;;;1.03;83.48;97695.66;1805778;79;21398;-72
2020/12/13 00:54:52;;;;;;;9.35;7.42;;;;;;;1.02;83.45;97701.02;1805769;79;20920;-72
2020/12/13 00:57:19;;;;;;;11.90;7.70;;;;;;;1.02;83.40;97697.89;1805756;79;20869;-72
2020/12/13 00:59:46;;;;;;;8.08;6.80;;;;;;;1.03;83.48;97703.59;1805637;79;20960;-72
2020/12/13 01:02:14;;;;;;;8.58;7.78;;;;;;;1.02;83.51;97701.86;1805822;79;22505;-72
2020/12/13 01:04:42;;;;;;;8.70;7.72;;;;;;;1.03;83.41;97701.42;1805689;79;20932;-72
2020/12/13 01:07:09;;;;;;;9.43;7.92;;;;;;;1.03;83.36;97698.30;1805837;79;21334;-72
2020/12/13 01:09:37;;;;;;;6.97;6.22;;;;;;;1.03;83.25;97698.30;1805591;79;21079;-72
2020/12/13 01:12:05;;;;;;;9.40;8.28;;;;;;;1.00;83.29;97698.43;1805855;79;21000;-72
2020/12/13 01:14:33;;;;;;;9.50;8.18;;;;;;;0.99;83.33;97698.02;1805758;79;21197;-72
2020/12/13 01:17:00;;;;;;;8.63;7.80;;;;;;;0.98;83.48;97701.61;1805699;79;20885;-72
2020/12/13 01:19:28;;;;;;;7.67;6.85;;;;;;;0.97;83.53;97695.91;1805682;79;20905;-72
2020/12/13 01:21:57;;;;;;;10.50;8.78;;;;;;;0.97;83.57;97703.84;1805728;79;20957;-72
2020/12/13 01:24:25;;;;;;;8.08;6.47;;;;;;;0.98;83.57;97698.09;1805729;79;20964;-72
2020/12/13 01:26:52;;;;;;;8.98;7.85;;;;;;;0.97;83.54;97700.35;1805736;79;22827;-72
2020/12/13 01:29:19;;;;;;;8.80;7.60;;;;;;;0.94;83.50;97703.97;1805653;79;20936;-71
2020/12/13 01:31:48;;;;;;;9.13;7.50;;;;;;;0.96;83.48;97702.11;1805734;79;20980;-72
2020/12/13 01:34:15;;;;;;;8.38;7.12;;;;;;;0.94;83.42;97706.62;1805605;79;20925;-72
2020/12/13 01:36:42;;;;;;;9.45;7.72;;;;;;;0.93;83.43;97708.89;1805729;79;21448;-72
2020/12/13 01:39:10;;;;;;;8.75;7.85;;;;;;;0.91;83.45;97709.39;1805828;79;22050;-71
2020/12/13 01:41:38;;;;;;;7.83;7.03;;;;;;;0.92;83.39;97710.27;1807107;79;20944;-71
2020/12/13 01:44:06;;;;;;;10.25;7.50;;;;;;;0.93;83.31;97712.85;1814935;79;21394;-72
2020/12/13 01:46:33;;;;;;;9.48;8.05;;;;;;;0.94;83.33;97711.91;1814701;79;20999;-72
2020/12/13 01:49:07;;;;;;;9.50;8.60;;;;;;;0.94;83.33;97709.27;1814896;79;20909;-72
2020/12/13 01:52:06;;;;;;;8.58;7.67;;;;;;;0.93;83.39;97708.89;1814903;79;21326;-71
2020/12/13 01:54:21;;;;;;;8.00;7.20;;;;;;;0.92;83.36;97704.51;1811831;79;20943;-70
2020/12/13 01:56:52;;;;;;;8.38;7.50;;;;;;;0.94;83.37;97708.41;1814837;79;20904;-71
2020/12/13 01:59:21;;;;;;;8.68;7.78;;;;;;;0.94;83.40;97706.62;1814785;79;20901;-71
2020/12/13 02:02:00;;;;;;;9.03;7.37;;;;;;;0.95;83.38;97710.14;1814954;79;20912;-71
2020/12/13 02:04:28;;;;;;;8.83;7.30;;;;;;;0.96;83.33;97710.05;1814770;79;21198;-71
2020/12/13 02:06:55;;;;;;;9.58;8.38;;;;;;;0.98;83.21;97706.02;1814712;79;20960;-71
2020/12/13 02:09:24;;;;;;;8.03;6.97;;;;;;;0.98;83.16;97706.90;1814854;79;21481;-71
2020/12/13 02:11:53;;;;;;;8.45;7.35;;;;;;;0.97;83.29;97710.46;1814714;79;20932;-71
2020/12/13 02:14:21;;;;;;;11.73;8.85;;;;;;;0.96;83.23;97706.08;1814894;79;21334;-71
2020/12/13 02:16:50;;;;;;;10.98;8.80;;;;;;;0.95;83.36;97702.21;1814776;79;21339;-71
2020/12/13 02:19:19;;;;;;;8.90;8.00;;;;;;;0.94;83.48;97703.97;1814712;78;20963;-71
2020/12/13 02:21:51;;;;;;;8.88;7.47;;;;;;;0.96;83.44;97705.23;1814698;79;20968;-71
2020/12/13 02:24:19;;;;;;;10.08;8.88;;;;;;;0.95;83.39;97700.42;1814891;79;20908;-71
2020/12/13 02:26:49;;;;;;;12.73;9.45;;;;;;;0.94;83.48;97705.30;1814894;79;21458;-71
2020/12/13 02:29:16;;;;;;;11.33;9.60;;;;;;;0.92;83.44;97697.90;1814778;78;21354;-71
2020/12/13 02:31:44;;;;;;;11.05;9.20;;;;;;;0.94;83.66;97702.65;1814704;79;20968;-71
2020/12/13 02:34:12;;;;;;;11.15;9.95;;;;;;;0.95;83.74;97699.56;1814737;79;20908;-71
2020/12/13 02:36:41;;;;;;;10.55;8.38;;;;;;;0.94;83.72;97701.33;1814652;79;20936;-71
2020/12/13 02:39:10;;;;;;;11.18;9.38;;;;;;;0.96;83.66;97702.11;1814797;79;20912;-71
2020/12/13 02:41:38;;;;;;;11.65;9.68;;;;;;;0.95;83.59;97704.38;1814296;78;21389;-71
2020/12/13 02:44:05;;;;;;;9.70;8.70;;;;;;;0.95;83.61;97698.24;1805584;79;20960;-71
2020/12/13 02:46:33;;;;;;;9.13;8.23;;;;;;;0.95;83.57;97695.12;1805645;79;21058;-71
2020/12/13 02:49:01;;;;;;;9.93;8.60;;;;;;;0.95;83.35;97708.35;1805706;79;21054;-71
2020/12/13 02:51:28;;;;;;;10.60;8.95;;;;;;;0.95;83.25;97704.86;1805636;79;20865;-71
2020/12/13 02:53:56;;;;;;;9.05;8.15;;;;;;;0.94;83.28;97705.30;1805938;79;21867;-71
2020/12/13 02:56:24;;;;;;;9.18;7.08;;;;;;;0.96;83.25;97708.73;1805708;79;21007;-71
2020/12/13 02:58:54;;;;;;;12.10;9.28;;;;;;;0.96;83.09;97714.48;1805830;79;20932;-72
2020/12/13 03:01:22;;;;;;;9.53;8.50;;;;;;;0.95;83.21;97708.83;1805742;79;20932;-71
2020/12/13 03:03:50;;;;;;;9.63;8.63;;;;;;;0.95;83.24;97713.64;1805973;79;20865;-71
2020/12/13 03:06:18;;;;;;;11.35;8.63;;;;;;;0.95;83.23;97714.11;1805712;79;21378;-71
2020/12/13 03:08:46;;;;;;;8.83;7.92;;;;;;;0.97;83.18;97714.42;1805752;79;20980;-71
2020/12/13 03:11:19;;;;;;;9.68;7.42;;;;;;;0.98;83.20;97713.52;1805907;79;21449;-71
2020/12/13 03:13:43;;;;;;;8.58;7.35;;;;;;;0.97;83.11;97719.71;1805410;79;21650;-71
2020/12/13 03:16:10;;;;;;;10.38;7.78;;;;;;;0.96;83.05;97723.74;1805859;79;21339;-71
2020/12/13 03:18:39;;;;;;;10.80;8.80;;;;;;;0.95;83.08;97724.22;1805882;79;21348;-71
2020/12/13 03:21:07;;;;;;;8.75;7.67;;;;;;;0.91;82.95;97725.25;1805647;79;20941;-71
2020/12/13 03:23:34;;;;;;;8.95;8.05;;;;;;;0.92;83.13;97720.38;1805821;79;21036;-71
2020/12/13 03:26:02;;;;;;;7.80;6.47;;;;;;;0.92;83.19;97731.42;1805797;79;21318;-71
2020/12/13 03:28:30;;;;;;;9.60;8.03;;;;;;;0.90;83.24;97723.55;1805865;79;20908;-71
2020/12/13 03:30:58;;;;;;;10.80;8.35;;;;;;;0.90;83.17;97720.91;1805899;79;21170;-71
2020/12/13 03:33:27;;;;;;;8.90;7.65;;;;;;;0.93;83.10;97729.16;1805644;79;20989;-71
2020/12/13 03:35:54;;;;;;;9.90;8.75;;;;;;;0.92;83.15;97726.98;1805797;79;20980;-71
2020/12/13 03:38:22;;;;;;;9.33;8.30;;;;;;;0.93;83.08;97727.84;1805761;79;20916;-71
2020/12/13 03:40:50;;;;;;;9.63;8.18;;;;;;;0.93;83.13;97724.75;1805963;79;20910;-70
2020/12/13 03:43:17;;;;;;;10.45;8.98;;;;;;;0.93;83.20;97731.36;1805718;79;21805;-70
2020/12/13 03:45:45;;;;;;;10.05;8.95;;;;;;;0.95;83.32;97733.95;1805747;79;20971;-71
2020/12/13 03:48:15;;;;;;;12.43;10.38;;;;;;;0.97;83.35;97729.44;1804360;79;20964;-71
2020/12/13 03:50:42;;;;;;;12.93;10.05;;;;;;;0.97;83.38;97731.61;1805756;79;21438;-71
2020/12/13 03:53:11;;;;;;;12.43;9.00;;;;;;;0.97;83.47;97728.97;1805757;79;20861;-71
2020/12/13 03:55:41;;;;;;;13.15;9.38;;;;;;;0.98;83.42;97731.14;1805859;79;22090;-71
2020/12/13 03:58:10;;;;;;;16.15;12.68;;;;;;;0.99;83.43;97724.94;1805410;79;21485;-70
2020/12/13 04:00:37;;;;;;;16.70;13.35;;;;;;;0.97;83.54;97727.64;1805701;79;20929;-70
2020/12/13 04:03:05;;;;;;;20.92;13.75;;;;;;;0.96;83.83;97733.00;1805736;79;21425;-70
2020/12/13 04:05:33;;;;;;;19.45;13.20;;;;;;;0.95;83.95;97729.50;1805761;79;20936;-70
2020/12/13 04:08:01;;;;;;;20.02;14.10;;;;;;;0.94;84.19;97731.73;1805829;79;21390;-70
2020/12/13 04:10:29;;;;;;;18.60;12.90;;;;;;;0.95;84.33;97726.86;1805653;79;20940;-70
2020/12/13 04:12:56;;;;;;;17.90;13.75;;;;;;;0.95;84.50;97736.11;1805749;79;20960;-70
2020/12/13 04:15:23;;;;;;;17.20;12.28;;;;;;;0.94;84.58;97738.35;1805720;79;21043;-70
2020/12/13 04:17:52;;;;;;;19.85;13.93;;;;;;;0.91;84.67;97735.83;1805870;79;20904;-70
2020/12/13 04:20:19;;;;;;;19.20;13.40;;;;;;;0.88;84.71;97730.23;1805644;79;21870;-70
2020/12/13 04:22:47;;;;;;;20.68;14.78;;;;;;;0.88;84.85;97728.02;1805710;79;21007;-70
2020/12/13 04:25:15;;;;;;;16.27;13.08;;;;;;;0.86;85.02;97731.20;1805698;79;20984;-71
2020/12/13 04:27:42;;;;;;;19.67;14.63;;;;;;;0.87;85.22;97734.25;1805702;79;20913;-70
2020/12/13 04:30:10;;;;;;;19.65;13.45;;;;;;;0.85;85.22;97736.08;1805896;79;20869;-70
2020/12/13 04:32:38;;;;;;;16.15;12.78;;;;;;;0.86;85.37;97741.30;1805722;79;22327;-70
2020/12/13 04:35:07;;;;;;;21.40;14.80;;;;;;;0.84;85.28;97733.06;1805716;79;20980;-70
2020/12/13 04:37:35;;;;;;;23.10;16.27;;;;;;;0.82;85.22;97733.55;1805669;79;21012;-71
2020/12/13 04:40:06;;;;;;;14.75;11.57;;;;;;;0.80;85.43;97736.73;1805719;79;20916;-71
2020/12/13 04:42:37;;;;;;;13.70;11.22;;;;;;;0.80;85.55;97742.88;1807319;79;21074;-71
2020/12/13 04:45:07;;;;;;;13.85;10.90;;;;;;;0.81;85.50;97741.11;1814821;79;21848;-71
2020/12/13 04:47:40;;;;;;;12.45;10.58;;;;;;;0.82;85.44;97741.48;1814797;79;20991;-71
2020/12/13 04:50:09;;;;;;;16.17;11.73;;;;;;;0.83;85.38;97743.22;1814910;79;21504;-71
2020/12/13 04:52:36;;;;;;;17.52;12.82;;;;;;;0.81;85.33;97740.64;1814813;79;20967;-71
2020/12/13 04:55:04;;;;;;;15.45;11.55;;;;;;;0.81;85.33;97739.79;1814886;79;20932;-71
2020/12/13 04:57:32;;;;;;;13.78;11.88;;;;;;;0.83;85.31;97748.52;1814910;79;21360;-71
2020/12/13 04:59:59;;;;;;;14.60;11.35;;;;;;;0.84;85.22;97743.63;1814862;78;21362;-71
2020/12/13 05:02:27;;;;;;;15.30;11.10;;;;;;;0.87;85.13;97750.12;1814881;79;20920;-71
2020/12/13 05:04:55;;;;;;;13.98;11.68;;;;;;;0.87;84.98;97752.77;1814822;79;20972;-71
2020/12/13 05:07:22;;;;;;;14.95;11.22;;;;;;;0.87;85.03;97755.41;1814823;79;20975;-71
2020/12/13 05:09:52;;;;;;;12.37;10.00;;;;;;;0.86;85.01;97752.35;1814830;79;22439;-71
2020/12/13 05:12:24;;;;;;;10.38;9.15;;;;;;;0.87;84.93;97758.05;1814823;79;20916;-71
2020/12/13 05:14:52;;;;;;;14.28;10.38;;;;;;;0.88;84.96;97761.08;1814883;79;20916;-72
2020/12/13 05:17:19;;;;;;;13.38;10.13;;;;;;;0.90;84.93;97765.86;1814796;79;20897;-71
2020/12/13 05:19:49;;;;;;;12.88;10.72;;;;;;;0.88;84.88;97757.11;1814877;79;20987;-71
2020/12/13 05:22:22;;;;;;;14.80;12.18;;;;;;;0.88;84.86;97763.72;1814767;79;21361;-71
2020/12/13 05:24:53;;;;;;;12.33;8.88;;;;;;;0.88;84.81;97761.95;1814797;79;20935;-71
2020/12/13 05:27:23;;;;;;;12.35;9.60;;;;;;;0.89;84.84;97762.80;1814869;79;20927;-71
2020/12/13 05:29:54;;;;;;;14.23;10.95;;;;;;;0.88;84.86;97767.68;1814783;79;20924;-71
2020/12/13 05:32:23;;;;;;;17.15;11.60;;;;;;;0.89;84.97;97769.41;1814757;79;21310;-71
2020/12/13 05:34:52;;;;;;;13.40;10.15;;;;;;;0.88;85.01;97762.39;1814886;79;22281;-71
2020/12/13 05:37:20;;;;;;;16.57;11.03;;;;;;;0.88;84.96;97767.68;1814761;79;20931;-70
2020/12/13 05:39:51;;;;;;;14.50;11.18;;;;;;;0.89;84.94;97768.94;1814742;79;20987;-71
2020/12/13 05:42:32;;;;;;;15.00;10.85;;;;;;;0.90;85.03;97772.47;1814747;79;21413;-72
2020/12/13 05:52:52;;;;;;;15.05;11.70;;;;;;;0.88;85.08;97772.97;1749052;80;20943;-72
2020/12/13 05:55:19;;;;;;;13.88;10.15;;;;;;;0.87;85.06;97777.88;1780411;80;20946;-72
2020/12/13 05:57:49;;;;;;;16.90;10.55;;;;;;;0.87;85.14;97779.20;1780609;80;20963;-72
2020/12/13 06:00:17;;;;;;;14.30;9.63;;;;;;;0.87;85.08;97781.84;1779897;80;21310;-72
2020/12/13 06:02:45;;;;;;;15.60;10.15;;;;;;;0.87;85.03;97784.48;1780475;80;20987;-71
2020/12/13 06:05:15;;;;;;;12.35;9.50;;;;;;;0.85;85.00;97787.63;1780549;80;21523;-72
2020/12/13 06:07:49;;;;;;;14.80;9.83;;;;;;;0.86;85.04;97784.08;1780476;80;21054;-72
2020/12/13 06:10:24;;;;;;;18.42;11.75;;;;;;;0.86;85.03;97784.92;1780646;80;20919;-73
2020/12/13 06:13:02;;;;;;;16.30;10.60;;;;;;;0.84;84.85;97784.61;1780400;80;21316;-72
2020/12/13 06:15:32;;;;;;;14.95;10.38;;;;;;;0.81;84.91;97782.94;1780514;80;20942;-72
2020/12/13 06:18:00;;;;;;;16.45;10.93;;;;;;;0.83;84.99;97792.13;1780550;80;20939;-73
2020/12/13 06:20:28;;;;;;;16.23;11.12;;;;;;;0.82;85.03;97790.40;1780496;80;21014;-73
2020/12/13 06:22:56;;;;;;;14.25;10.95;;;;;;;0.83;85.22;97789.48;1780491;80;20963;-74
2020/12/13 06:25:23;;;;;;;16.77;12.10;;;;;;;0.81;85.30;97782.09;1748145;80;21389;-71
2020/12/13 06:27:52;;;;;;;14.18;10.90;;;;;;;0.83;85.43;97788.16;1780412;80;20923;-73
2020/12/13 06:30:22;;;;;;;16.27;11.45;;;;;;;0.84;85.43;97788.11;1780480;80;20919;-73
2020/12/13 06:32:51;;;;;;;17.77;12.43;;;;;;;0.86;85.43;97792.02;1780481;80;20919;-72
2020/12/13 06:35:19;;;;;;;19.40;12.60;;;;;;;0.86;85.41;97788.89;1780492;80;21353;-73
2020/12/13 06:37:49;;;;;;;16.93;12.15;;;;;;;0.85;85.39;97791.60;1780178;80;39468;-73
2020/12/13 06:40:21;;;;;;;15.23;10.82;;;;;;;0.84;85.38;97785.46;1780494;80;21404;-74
2020/12/13 06:42:50;;;;;;;16.17;12.20;;;;;;;0.85;85.33;97795.12;1781099;79;20895;-73
2020/12/13 06:45:18;;;;;;;15.18;11.57;;;;;;;0.84;85.38;97793.87;1805636;79;20936;-73
2020/12/13 06:47:47;;;;;;;19.37;13.03;;;;;;;0.84;85.51;97803.12;1805148;79;21398;-73
2020/12/13 06:50:23;;;;;;;16.57;11.78;;;;;;;0.83;85.52;97804.03;1805743;79;21441;-73
2020/12/13 06:52:52;;;;;;;19.67;14.07;;;;;;;0.82;85.54;97810.23;1805655;79;20936;-73
2020/12/13 06:55:34;;;;;;;20.20;15.00;;;;;;;0.84;85.50;97807.08;1805546;79;20912;-73
2020/12/13 06:58:03;;;;;;;19.65;13.95;;;;;;;0.83;85.60;97806.67;1805897;79;20900;-73
2020/12/13 07:00:51;;;;;;;19.70;13.90;;;;;;;0.84;85.66;97808.41;1805580;79;20930;-73
2020/12/13 07:03:26;;;;;;;21.10;12.55;;;;;;;0.84;85.73;97814.55;1781350;79;21003;-72
2020/12/13 07:05:57;;;;;;;17.70;13.25;;;;;;;0.85;85.73;97811.42;1805581;79;20988;-73
2020/12/13 07:08:24;;;;;;;17.30;12.70;;;;;;;0.85;85.73;97814.95;1805594;79;21599;-74
2020/12/13 07:10:53;;;;;;;15.08;11.60;;;;;;;0.86;85.76;97810.52;1805662;79;20933;-74
2020/12/13 07:13:24;;;;;;;15.10;11.65;;;;;;;0.86;85.77;97807.88;1805602;79;20901;-73
2020/12/13 07:16:00;;;;;;;14.35;10.93;;;;;;;0.88;85.80;97812.63;1805645;79;21426;-74
2020/12/13 07:18:24;;;;;;;12.85;11.12;;;;;;;0.90;85.75;97809.48;1805417;79;21027;-74
2020/12/13 07:20:52;;;;;;;16.27;12.23;;;;;;;0.93;85.66;97809.37;1805666;79;20869;-73
2020/12/13 07:23:19;;;;;;;14.98;12.37;;;;;;;0.95;85.48;97818.09;1728125;79;21437;-74
2020/12/13 07:25:47;;;;;;;16.23;12.45;;;;;;;0.97;85.37;97822.84;1805579;79;20968;-74
2020/12/13 07:28:16;;;;;;;18.15;12.75;;;;;;;0.98;85.24;97829.87;1805725;79;21193;-74
2020/12/13 07:30:45;;;;;;;17.00;12.98;;;;;;;0.98;85.02;97828.98;1781255;79;21354;-73
2020/12/13 07:33:15;;;;;;;21.62;13.00;;;;;;;0.98;85.01;97832.52;1757597;79;21387;-74
2020/12/13 07:35:43;;;;;;;14.18;11.57;;;;;;;0.99;85.04;97826.75;1805614;79;20897;-74
2020/12/13 07:38:10;;;;;;;22.25;12.53;;;;;;;0.98;85.16;97823.70;1805655;79;20904;-73
2020/12/13 07:40:38;;;;;;;17.20;11.83;;;;;;;1.00;85.25;97829.34;1805813;79;22129;-73
2020/12/13 07:43:05;;;;;;;20.65;12.68;;;;;;;1.00;85.23;97830.66;1805765;79;20976;-76
2020/12/13 07:45:32;;;;;;;17.92;12.05;;;;;;;1.01;85.13;97832.39;1825560;78;20900;-74
2020/12/13 07:48:00;;;;;;;16.25;12.23;;;;;;;1.02;85.02;97834.09;1825688;78;20916;-74
2020/12/13 07:50:35;;;;;;;20.02;13.32;;;;;;;1.04;84.96;97834.91;1825494;78;20978;-74
2020/12/13 07:53:02;;;;;;;15.10;11.55;;;;;;;1.04;84.99;97836.23;1825769;78;22312;-74
2020/12/13 07:55:29;;;;;;;15.43;10.05;;;;;;;1.07;84.94;97844.49;1825580;78;21439;-74
2020/12/13 07:57:57;;;;;;;16.50;11.48;;;;;;;1.08;84.95;97843.11;1825712;78;21545;-73
2020/12/13 08:00:26;;;;;;;15.75;12.05;;;;;;;1.08;84.72;97841.78;1825476;78;20983;-75
2020/12/13 08:02:57;;;;;;;19.23;12.78;;;;;;;1.08;84.78;97836.97;1825547;78;21029;-73
2020/12/13 08:05:28;;;;;;;16.90;12.00;;;;;;;1.08;84.79;97836.50;1825514;78;21855;-74
2020/12/13 08:08:00;;;;;;;17.65;12.68;;;;;;;1.11;84.73;97834.67;1825582;78;21452;-73
2020/12/13 08:10:30;;;;;;;13.58;11.97;;;;;;;1.11;84.63;97835.52;1825078;78;20983;-74
2020/12/13 08:12:59;;;;;;;16.55;11.50;;;;;;;1.13;84.50;97834.14;1825679;78;21409;-73
2020/12/13 08:15:28;;;;;;;17.30;12.40;;;;;;;1.12;84.46;97833.28;1825462;78;20976;-73
2020/12/13 08:18:07;;;;;;;13.98;11.30;;;;;;;1.11;84.46;97834.20;1825577;78;21883;-73
2020/12/13 08:20:38;;;;;;;12.23;9.15;;;;;;;1.11;84.43;97836.00;1825605;78;20955;-74
2020/12/13 08:23:07;;;;;;;15.15;11.18;;;;;;;1.12;84.41;97845.63;1825586;78;20924;-74
2020/12/13 08:25:36;;;;;;;13.58;10.40;;;;;;;1.11;84.41;97841.28;1825502;78;20927;-73
2020/12/13 08:28:04;;;;;;;13.50;11.12;;;;;;;1.11;84.54;97845.25;1825655;78;21461;-74
2020/12/13 08:30:33;;;;;;;16.95;12.18;;;;;;;1.10;84.46;97851.45;1825526;78;21364;-73
2020/12/13 08:33:01;;;;;;;13.72;10.38;;;;;;;1.08;84.49;97854.16;1825471;78;20952;-74
2020/12/13 08:35:32;;;;;;;17.10;10.15;;;;;;;1.11;84.52;97853.19;1825512;78;20904;-74
2020/12/13 08:38:00;;;;;;;14.15;10.75;;;;;;;1.13;84.45;97851.33;1825641;78;21527;-75
2020/12/13 08:40:44;;;;;;;14.33;11.30;;;;;;;1.12;84.42;97854.89;1825420;78;20931;-74
2020/12/13 08:43:19;;;;;;;15.78;11.55;;;;;;;1.14;84.45;97859.68;1825701;78;22305;-74
2020/12/13 08:45:56;;;;;;;14.93;11.65;;;;;;;1.14;84.38;97853.06;1815324;78;21399;-73
2020/12/13 08:48:25;;;;;;;13.05;10.32;;;;;;;1.14;84.36;97853.92;1815025;79;21445;-73
2020/12/13 08:51:09;;;;;;;14.87;11.97;;;;;;;1.18;84.42;97859.94;1814779;79;20923;-74
2020/12/13 08:53:37;;;;;;;15.43;11.43;;;;;;;1.18;84.39;97859.50;1814929;79;20933;-73
2020/12/13 08:56:10;;;;;;;14.10;10.82;;;;;;;1.19;84.48;97856.38;1783183;79;21215;-75
2020/12/13 08:58:49;;;;;;;;;;;;;;;1.21;84.52;97862.46;1817617;79;21417;-73
2020/12/13 09:01:21;;;;;;;12.70;9.68;;;;;;;1.23;84.49;97868.54;1814783;79;20149;-74
2020/12/13 09:03:47;;;;;;;11.68;9.80;;;;;;;1.24;84.49;97867.63;1814872;79;21409;-74
2020/12/13 09:06:35;;;;;;;13.43;9.20;;;;;;;1.27;84.40;97864.86;1814874;79;20996;-72
2020/12/13 09:09:10;;;;;;;10.75;8.98;;;;;;;1.27;84.18;97864.86;1814911;79;21283;-72
2020/12/13 09:11:37;;;;;;;12.05;8.90;;;;;;;1.30;84.05;97870.03;1814792;78;21030;-74
2020/12/13 09:14:05;;;;;;;9.93;8.08;;;;;;;1.30;83.90;97860.77;1814850;79;21316;-73
2020/12/13 09:16:34;;;;;;;10.93;8.93;;;;;;;1.33;83.69;97859.33;1814731;79;21015;-74
2020/12/13 09:19:10;;;;;;;13.00;9.28;;;;;;;1.36;83.63;97853.91;1814920;78;21445;-73
2020/12/13 09:21:52;;;;;;;9.18;7.97;;;;;;;1.39;83.51;97860.40;1814937;79;21417;-74
2020/12/13 09:24:23;;;;;;;9.15;7.90;;;;;;;1.40;83.39;97858.16;1814843;79;20885;-73
2020/12/13 09:27:05;;;;;;;11.25;7.95;;;;;;;1.42;83.39;97853.66;1814773;79;20929;-74
2020/12/13 09:29:35;;;;;;;9.18;8.13;;;;;;;1.44;83.36;97856.24;1814690;79;20872;-74
2020/12/13 09:32:04;;;;;;;12.30;9.33;;;;;;;1.46;83.24;97857.50;1814884;79;20905;-73
2020/12/13 09:34:33;;;;;;;12.00;9.18;;;;;;;1.48;83.36;97858.29;1814842;79;21637;-74
2020/12/13 09:37:01;;;;;;;12.30;9.53;;;;;;;1.50;83.21;97860.41;1814711;79;20924;-73
2020/12/13 09:39:33;;;;;;;10.40;9.33;;;;;;;1.51;83.19;97855.52;1814810;79;20916;-74
2020/12/13 09:42:00;;;;;;;11.97;9.70;;;;;;;1.55;83.27;97857.13;1814760;79;21330;-73
2020/12/13 09:44:27;;;;;;;11.70;9.53;;;;;;;1.54;83.06;97854.07;1812240;78;20956;-74
2020/12/13 09:46:57;;;;;;;12.18;9.13;;;;;;;1.55;82.99;97845.22;1805679;79;21236;-73
2020/12/13 09:49:28;;;;;;;10.82;9.53;;;;;;;1.56;83.07;97848.23;1805754;79;21035;-74
2020/12/13 09:52:02;;;;;;;9.73;8.83;;;;;;;1.58;82.89;97849.06;1805722;79;20940;-73
2020/12/13 09:54:29;;;;;;;10.43;8.43;;;;;;;1.60;82.62;97847.20;1805959;79;20916;-73
2020/12/13 09:56:57;;;;;;;12.18;10.00;;;;;;;1.60;82.56;97841.91;1805590;79;21634;-73
2020/12/13 09:59:26;;;;;;;10.20;9.03;;;;;;;1.62;82.49;97849.31;1805782;79;21626;-74
2020/12/13 10:01:53;;;;;;;12.05;10.15;;;;;;;1.61;82.61;97858.20;1805580;79;20945;-73
2020/12/13 10:04:24;;;;;;;10.08;7.53;;;;;;;1.61;82.60;97852.91;1805706;79;20927;-72
2020/12/13 10:09:39;;;;;;;9.35;7.67;;;;;;;1.61;82.51;97855.55;1805762;79;21323;-74
2020/12/13 10:12:06;;;;;;;9.73;8.68;;;;;;;1.62;82.71;97865.19;1805719;79;22088;-73
2020/12/13 10:14:34;;;;;;;9.83;8.33;;;;;;;1.64;82.87;97860.72;1805689;79;21012;-74
2020/12/13 10:17:02;;;;;;;9.00;8.10;;;;;;;1.64;82.88;97862.04;1805558;79;20924;-73
2020/12/13 10:19:29;;;;;;;7.50;6.58;;;;;;;1.66;82.80;97863.30;1805731;79;20913;-74
2020/12/13 10:21:56;;;;;;;9.20;7.97;;;;;;;1.67;82.78;97859.70;1805777;79;20972;-74
2020/12/13 10:24:24;;;;;;;10.55;8.70;;;;;;;1.68;82.77;97859.64;1805682;79;22532;-73
2020/12/13 10:26:55;;;;;;;9.25;8.35;;;;;;;1.67;82.81;97867.20;1805629;79;21454;-74
2020/12/13 10:29:22;;;;;;;11.28;9.05;;;;;;;1.69;82.95;97861.81;1805638;79;20924;-74
2020/12/13 10:31:50;;;;;;;9.13;8.20;;;;;;;1.67;83.05;97865.88;1805232;79;20912;-74
2020/12/13 10:34:18;;;;;;;8.30;7.42;;;;;;;1.69;83.08;97868.44;1805385;79;20960;-74
2020/12/13 10:36:49;;;;;;;8.10;7.20;;;;;;;1.70;83.12;97878.11;1805424;79;21649;-73
2020/12/13 10:39:20;;;;;;;9.43;7.72;;;;;;;1.69;83.20;97868.00;1805548;79;21011;-74
2020/12/13 10:41:52;;;;;;;9.48;8.35;;;;;;;1.70;83.39;97867.52;1805370;78;21051;-74
2020/12/13 10:44:20;;;;;;;8.27;7.33;;;;;;;1.72;83.51;97874.48;1782487;79;20920;-73
2020/12/13 10:46:47;;;;;;;11.05;8.13;;;;;;;1.72;83.62;97866.55;1805278;79;21007;-74
2020/12/13 10:49:15;;;;;;;8.95;8.03;;;;;;;1.74;83.59;97863.83;1804678;79;21369;-73
2020/12/13 10:51:43;;;;;;;9.03;8.18;;;;;;;1.75;83.50;97865.09;1805625;79;20960;-73
2020/12/13 10:54:10;;;;;;;12.68;9.70;;;;;;;1.77;83.37;97865.03;1805585;79;20928;-73
2020/12/13 10:56:37;;;;;;;10.88;9.75;;;;;;;1.77;83.39;97869.00;1805559;79;20929;-73
2020/12/13 10:59:05;;;;;;;9.83;8.83;;;;;;;1.78;83.49;97870.70;1805806;79;20986;-73
2020/12/13 11:01:33;;;;;;;10.05;8.58;;;;;;;1.78;83.50;97868.94;1805568;79;21358;-73
2020/12/13 11:04:00;;;;;;;10.48;9.30;;;;;;;1.79;83.38;97865.34;1805612;79;21347;-73
2020/12/13 11:06:30;;;;;;;9.80;8.68;;;;;;;1.82;83.40;97871.45;1805456;79;20996;-74
2020/12/13 11:09:01;;;;;;;9.68;8.23;;;;;;;1.82;83.45;97865.69;1805455;79;20976;-75
2020/12/13 11:11:27;;;;;;;9.38;8.38;;;;;;;1.83;83.46;97867.86;1805343;79;20995;-74
2020/12/13 11:13:54;;;;;;;9.53;7.72;;;;;;;1.83;83.52;97868.74;1805578;79;21120;-74
2020/12/13 11:16:21;;;;;;;8.35;7.45;;;;;;;1.84;83.49;97863.83;1805299;79;20940;-74
2020/12/13 11:18:49;;;;;;;9.63;8.00;;;;;;;1.88;83.41;97869.88;1805646;79;20984;-73
2020/12/13 11:21:19;;;;;;;10.18;8.35;;;;;;;1.90;83.37;97861.39;1805697;79;20925;-74
2020/12/13 11:23:48;;;;;;;10.40;8.35;;;;;;;1.90;83.27;97864.03;1805747;79;21019;-74
2020/12/13 11:26:16;;;;;;;9.88;8.83;;;;;;;1.92;83.32;97868.80;1805687;79;22821;-75
2020/12/13 11:28:45;;;;;;;11.97;9.58;;;;;;;1.90;83.28;97866.21;1805878;79;21485;-73
2020/12/13 11:31:16;;;;;;;12.07;9.35;;;;;;;1.92;83.19;97866.14;1805588;79;21525;-73
2020/12/13 11:33:45;;;;;;;11.12;9.98;;;;;;;1.93;83.16;97864.75;1805442;79;20996;-74
2020/12/13 11:36:13;;;;;;;12.35;10.95;;;;;;;1.94;83.19;97870.91;1805495;79;20920;-74
2020/12/13 11:38:41;;;;;;;12.82;11.08;;;;;;;1.93;83.18;97866.55;1805711;79;21371;-74
2020/12/13 11:41:10;;;;;;;15.45;13.13;;;;;;;1.93;83.15;97859.45;1805417;79;20925;-73
2020/12/13 11:43:37;;;;;;;12.30;10.63;;;;;;;1.93;83.15;97869.20;1805567;79;21015;-73
2020/12/13 11:46:08;;;;;;;12.82;10.32;;;;;;;1.94;83.12;97865.61;1805707;79;20992;-73
2020/12/13 11:48:41;;;;;;;13.05;10.53;;;;;;;1.95;83.13;97866.02;1805798;79;20979;-74
2020/12/13 11:51:09;;;;;;;9.30;8.13;;;;;;;1.94;83.04;97865.16;1805948;79;21191;-73
2020/12/13 11:53:37;;;;;;;12.00;10.58;;;;;;;1.93;83.11;97871.38;1805830;79;21525;-73